Time;durP1;ratioP1;P1;durP2;ratioP2;P2;SDS_P1;SDS_P2;PMS_P1;PMS_P2;Temp;Humidity;BMP_temperature;BMP_pressure;BME280_temperature;BME280_humidity;BME280_pressure;Samples;Min_cycle;Max_cycle;Signal;HPM_P1;HPM_P2
2022/11/03 00:01:16;;;;;;;7.28;4.32;;;16.50;64.40;;;;;;21084355;28;20048;-59
2022/11/03 00:11:18;;;;;;;10.38;5.95;;;16.50;64.40;;;;;;21083547;28;20051;-55
2022/11/03 00:21:19;;;;;;;10.52;5.85;;;16.60;64.40;;;;;;21083325;28;20541;-59
2022/11/03 00:31:26;;;;;;;7.85;5.00;;;16.50;64.80;;;;;;21082689;28;20127;-54
2022/11/03 00:41:28;;;;;;;9.02;4.43;;;16.60;64.70;;;;;;21081496;28;20127;-59
2022/11/03 00:51:30;;;;;;;6.88;4.35;;;16.40;65.00;;;;;;21080331;28;20086;-56
2022/11/03 01:01:41;;;;;;;8.00;4.75;;;16.50;65.00;;;;;;21079856;28;20152;-59
2022/11/03 01:11:55;;;;;;;8.27;5.13;;;16.50;64.90;;;;;;21080358;28;20051;-54
2022/11/03 01:21:57;;;;;;;7.50;4.50;;;16.40;65.00;;;;;;21080034;28;20052;-58
2022/11/03 01:31:59;;;;;;;11.02;5.65;;;16.40;65.00;;;;;;21078940;28;20515;-58
2022/11/03 01:42:01;;;;;;;9.07;4.60;;;16.50;64.60;;;;;;21078349;28;20052;-55
2022/11/03 01:52:16;;;;;;;9.20;4.00;;;16.50;64.20;;;;;;21077235;28;20127;-58
2022/11/03 02:02:17;;;;;;;5.47;3.25;;;16.50;64.50;;;;;;21083233;28;20117;-58
2022/11/03 02:12:21;;;;;;;4.78;3.28;;;16.20;65.10;;;;;;21093095;28;20048;-56
2022/11/03 02:22:51;;;;;;;5.50;2.97;;;15.90;65.90;;;;;;21092543;28;20056;-59
2022/11/03 02:33:00;;;;;;;4.88;2.63;;;15.80;66.40;;;;;;21092536;28;20047;-58
2022/11/03 02:43:06;;;;;;;5.07;3.20;;;15.80;66.50;;;;;;21091326;28;20442;-59
2022/11/03 02:53:12;;;;;;;;;;;15.70;66.60;;;;;;21091502;28;20123;-55
2022/11/03 03:03:39;;;;;;;6.30;3.13;;;15.60;66.70;;;;;;21089656;28;20026;-57
2022/11/03 03:13:43;;;;;;;6.78;3.25;;;15.70;66.80;;;;;;21087163;28;20385;-55
2022/11/03 03:23:53;;;;;;;6.33;3.90;;;15.70;67.10;;;;;;21087689;28;20136;-55
2022/11/03 03:33:59;;;;;;;5.57;3.60;;;15.70;66.90;;;;;;21087384;28;20450;-55
2022/11/03 03:44:07;;;;;;;5.47;2.72;;;15.70;67.00;;;;;;21085523;28;20483;-54
2022/11/03 03:54:09;;;;;;;5.13;3.05;;;15.70;67.20;;;;;;21084913;28;20044;-56
2022/11/03 04:04:11;;;;;;;7.20;3.08;;;15.70;67.30;;;;;;21084045;28;20047;-55
2022/11/03 04:24:39;;;;;;;10.55;5.35;;;15.70;65.70;;;;;;21082989;28;20131;-54
2022/11/03 04:34:47;;;;;;;8.88;5.43;;;15.70;65.30;;;;;;21083232;28;20044;-56
2022/11/03 04:44:51;;;;;;;9.77;5.00;;;15.70;65.40;;;;;;21081726;28;20052;-55
2022/11/03 04:54:54;;;;;;;10.95;5.63;;;15.70;65.40;;;;;;21080757;28;20484;-56
2022/11/03 05:04:57;;;;;;;10.65;5.82;;;15.70;65.40;;;;;;21079814;28;20048;-59
2022/11/03 05:14:59;;;;;;;7.22;4.75;;;15.70;65.70;;;;;;21079682;28;20054;-55
2022/11/03 05:25:23;;;;;;;9.98;5.55;;;15.70;65.40;;;;;;21078755;28;20101;-55
2022/11/03 05:35:25;;;;;;;12.55;5.72;;;15.70;65.70;;;;;;21080920;28;20070;-56
2022/11/03 05:45:34;;;;;;;16.33;7.72;;;15.70;65.60;;;;;;21095838;28;20131;-56
2022/11/03 05:55:36;;;;;;;14.40;5.90;;;15.70;65.40;;;;;;21094827;28;20048;-58
2022/11/03 06:05:40;;;;;;;10.77;5.80;;;15.90;65.10;;;;;;21094390;28;20052;-57
2022/11/03 06:15:45;;;;;;;6.30;4.15;;;15.90;64.90;;;;;;21093304;28;20078;-54
2022/11/03 06:25:49;;;;;;;4.75;3.10;;;16.10;65.40;;;;;;21093263;28;20396;-59
2022/11/03 06:36:02;;;;;;;5.90;3.05;;;16.10;66.30;;;;;;21091964;28;20087;-56
2022/11/03 06:46:23;;;;;;;3.85;3.13;;;16.20;66.40;;;;;;21090772;28;20132;-58
2022/11/03 06:56:34;;;;;;;6.25;3.92;;;16.10;66.90;;;;;;21091204;28;20408;-56
2022/11/03 07:06:36;;;;;;;6.80;4.38;;;16.10;67.90;;;;;;21089976;28;20052;-57
2022/11/03 07:16:43;;;;;;;5.55;3.78;;;16.20;69.00;;;;;;21088726;28;20097;-55
2022/11/03 07:26:45;;;;;;;6.72;4.22;;;16.20;69.80;;;;;;21087139;28;20500;-56
2022/11/03 07:36:47;;;;;;;8.00;4.10;;;16.10;70.80;;;;;;21086600;28;20040;-55
2022/11/03 07:46:50;;;;;;;7.57;4.55;;;16.10;71.80;;;;;;21085577;28;20059;-60
2022/11/03 07:56:58;;;;;;;10.60;7.57;;;16.20;72.50;;;;;;21085121;28;20048;-56
2022/11/03 08:07:00;;;;;;;5.25;4.05;;;16.20;74.30;;;;;;21084489;28;20120;-56
2022/11/03 08:17:02;;;;;;;8.50;4.72;;;16.20;75.20;;;;;;21083335;28;20051;-54
2022/11/03 08:27:04;;;;;;;10.38;4.78;;;16.20;75.80;;;;;;21083266;28;20048;-55
2022/11/03 08:37:06;;;;;;;10.18;5.70;;;16.20;76.50;;;;;;21080694;28;20090;-55
2022/11/03 08:47:08;;;;;;;6.82;4.10;;;16.20;76.10;;;;;;21078972;28;20083;-56
2022/11/03 08:57:09;;;;;;;6.30;3.83;;;16.20;76.10;;;;;;21081320;28;20447;-55
2022/11/03 09:07:11;;;;;;;6.47;3.28;;;16.10;76.10;;;;;;21079784;28;20051;-59
2022/11/03 09:17:14;;;;;;;8.30;3.38;;;16.10;74.80;;;;;;21079243;28;20044;-56
2022/11/03 09:27:16;;;;;;;7.18;3.00;;;16.10;76.60;;;;;;21077802;28;20431;-59
2022/11/03 09:37:19;;;;;;;6.93;3.92;;;16.20;77.00;;;;;;21077809;28;20048;-56
2022/11/03 09:47:31;;;;;;;8.57;3.70;;;16.20;77.70;;;;;;21077248;28;20092;-59
2022/11/03 09:57:32;;;;;;;7.22;3.78;;;16.20;77.30;;;;;;21077873;28;20381;-58
2022/11/03 10:07:35;;;;;;;6.53;2.63;;;16.30;76.60;;;;;;21077304;28;20051;-58
2022/11/03 10:17:38;;;;;;;4.50;3.08;;;16.30;75.70;;;;;;21076387;28;20046;-60
2022/11/03 10:27:40;;;;;;;5.40;2.33;;;16.40;75.10;;;;;;21087660;28;20092;-55
2022/11/03 10:37:41;;;;;;;8.98;2.60;;;16.60;72.70;;;;;;21090304;28;20051;-56
2022/11/03 10:47:43;;;;;;;4.05;2.20;;;16.70;69.70;;;;;;21089500;28;20476;-56
2022/11/03 10:57:45;;;;;;;5.38;2.28;;;16.80;66.10;;;;;;21090153;28;20404;-56
2022/11/03 11:07:50;;;;;;;3.83;1.90;;;17.00;62.30;;;;;;21089724;28;20412;-56
2022/11/03 11:17:52;;;;;;;2.83;1.45;;;17.50;54.50;;;;;;21088868;28;20063;-59
2022/11/03 11:27:55;;;;;;;6.40;2.53;;;17.70;51.60;;;;;;21088652;28;20453;-56
2022/11/03 11:38:40;;;;;;;4.67;2.40;;;18.00;50.00;;;;;;21086075;28;20044;-56
2022/11/03 11:48:41;;;;;;;;;;;18.00;47.70;;;;;;20828571;28;20057;-56
2022/11/03 11:58:48;;;;;;;2.90;1.33;;;17.90;47.00;;;;;;20827706;28;19924;-59
2022/11/03 12:08:49;;;;;;;5.78;2.85;;;18.00;44.70;;;;;;20826144;28;20057;-58
2022/11/03 12:18:51;;;;;;;3.35;1.70;;;18.20;43.50;;;;;;20877594;28;20051;-56
2022/11/03 12:28:53;;;;;;;2.50;1.17;;;18.30;41.00;;;;;;21083697;28;20118;-55
2022/11/03 12:38:54;;;;;;;2.08;1.35;;;18.40;40.60;;;;;;21082142;28;20083;-59
2022/11/03 12:48:56;;;;;;;2.67;1.10;;;18.60;40.10;;;;;;21062491;28;20408;-55
2022/11/03 12:58:58;;;;;;;4.03;1.58;;;18.70;40.10;;;;;;21081456;28;20044;-60
2022/11/03 13:09:00;;;;;;;3.00;1.15;;;18.80;40.90;;;;;;21080804;28;20079;-56
2022/11/03 13:19:01;;;;;;;1.88;0.90;;;18.90;41.20;;;;;;21080546;28;20078;-55
2022/11/03 13:29:03;;;;;;;2.55;1.45;;;18.80;41.70;;;;;;21082298;28;20464;-58
2022/11/03 13:39:05;;;;;;;2.95;1.25;;;18.70;43.40;;;;;;21079683;28;20547;-55
2022/11/03 13:49:07;;;;;;;2.10;1.08;;;18.60;44.00;;;;;;21077582;28;20052;-57
2022/11/03 13:59:09;;;;;;;2.63;1.30;;;18.50;44.70;;;;;;21085003;28;20136;-56
2022/11/03 14:09:14;;;;;;;6.30;5.53;;;18.50;45.00;;;;;;21094470;28;20484;-59
2022/11/03 14:19:16;;;;;;;4.05;1.33;;;18.30;48.40;;;;;;21094116;28;20040;-56
2022/11/03 14:29:17;;;;;;;2.33;1.17;;;18.30;48.90;;;;;;21093052;28;20044;-59
2022/11/03 14:39:19;;;;;;;3.30;1.45;;;18.20;48.20;;;;;;21092175;28;20084;-59
2022/11/03 14:49:21;;;;;;;2.15;1.42;;;18.20;49.30;;;;;;21089977;28;20060;-58
2022/11/03 14:59:23;;;;;;;5.43;2.03;;;18.10;50.70;;;;;;21090141;28;20044;-58
2022/11/03 15:09:25;;;;;;;3.47;1.27;;;18.00;51.20;;;;;;21088551;28;20109;-58
2022/11/03 15:19:26;;;;;;;4.28;1.30;;;18.00;50.90;;;;;;21087856;28;20044;-56
2022/11/03 15:29:28;;;;;;;6.20;1.42;;;18.20;51.50;;;;;;21088858;28;20052;-57
2022/11/03 15:39:30;;;;;;;3.78;1.20;;;18.00;53.80;;;;;;21087585;28;20076;-55
2022/11/03 15:49:32;;;;;;;2.47;1.30;;;17.90;54.30;;;;;;21085928;28;20052;-55
2022/11/03 15:59:33;;;;;;;1.92;1.20;;;17.80;55.10;;;;;;21086039;28;20171;-57
2022/11/03 16:09:35;;;;;;;1.45;0.95;;;17.80;56.30;;;;;;21085138;28;20048;-58
2022/11/03 16:19:36;;;;;;;3.40;1.02;;;18.00;57.90;;;;;;21084786;28;20044;-57
2022/11/03 16:29:38;;;;;;;2.53;0.90;;;17.70;60.40;;;;;;21084772;28;20060;-60
2022/11/03 16:39:39;;;;;;;2.97;1.10;;;17.50;60.60;;;;;;21082600;28;20048;-55
2022/11/03 16:49:41;;;;;;;2.40;1.10;;;17.20;61.20;;;;;;21061363;28;20067;-58
2022/11/03 16:59:43;;;;;;;3.08;1.38;;;17.20;60.90;;;;;;21079179;28;20458;-56
2022/11/03 17:09:45;;;;;;;2.42;1.23;;;17.10;61.40;;;;;;21079297;28;20084;-57
2022/11/03 17:19:46;;;;;;;4.50;1.58;;;17.00;61.10;;;;;;21078655;28;20040;-58
2022/11/03 17:29:56;;;;;;;8.82;2.75;;;16.90;62.50;;;;;;21074790;28;20407;-57
2022/11/03 17:39:57;;;;;;;3.67;2.08;;;16.60;68.50;;;;;;21075088;28;20044;-57
2022/11/03 17:49:59;;;;;;;4.15;1.70;;;16.40;70.10;;;;;;21035857;28;1181599;-55
2022/11/03 18:00:03;;;;;;;5.18;2.25;;;16.30;70.50;;;;;;21077627;28;20059;-56
2022/11/03 18:10:05;;;;;;;5.53;2.35;;;16.00;71.30;;;;;;21077731;28;20067;-57
2022/11/03 18:20:17;;;;;;;3.60;2.65;;;15.80;73.60;;;;;;21076846;28;20044;-58
2022/11/03 18:30:19;;;;;;;3.70;2.50;;;15.80;74.30;;;;;;21077080;28;20055;-55
2022/11/03 18:40:20;;;;;;;3.83;1.88;;;15.70;74.40;;;;;;21078152;28;20063;-65
2022/11/03 18:50:22;;;;;;;8.48;3.38;;;16.40;72.10;;;;;;21126717;28;20047;-60
2022/11/03 19:00:24;;;;;;;3.70;2.20;;;16.40;71.90;;;;;;21174555;28;20123;-58
2022/11/03 19:10:25;;;;;;;4.65;2.75;;;16.30;72.80;;;;;;21175086;28;20096;-63
2022/11/03 19:20:27;;;;;;;3.80;2.40;;;16.00;73.40;;;;;;21173060;28;20054;-61
2022/11/03 19:30:29;;;;;;;5.75;2.47;;;15.90;72.50;;;;;;21172571;28;20051;-61
2022/11/03 19:40:31;;;;;;;3.58;2.20;;;15.90;73.00;;;;;;21169828;28;20040;-63
2022/11/03 19:50:35;;;;;;;2.85;1.90;;;15.60;73.40;;;;;;21173547;28;20052;-61
2022/11/03 20:00:36;;;;;;;3.03;1.80;;;15.70;72.90;;;;;;21168317;28;20069;-58
2022/11/03 20:10:38;;;;;;;2.53;1.70;;;17.50;71.60;;;;;;21168655;28;20051;-58
2022/11/03 20:20:42;;;;;;;3.25;1.67;;;16.20;71.80;;;;;;21168505;28;20153;-57
2022/11/03 20:30:44;;;;;;;3.87;2.13;;;16.00;73.00;;;;;;21167500;28;20083;-59
2022/11/03 20:40:46;;;;;;;4.28;1.60;;;15.70;73.30;;;;;;21166724;28;20131;-56
2022/11/03 20:50:48;;;;;;;3.22;1.70;;;15.80;73.50;;;;;;21165818;28;20051;-55
2022/11/03 21:00:50;;;;;;;3.78;1.55;;;15.70;74.10;;;;;;21166839;28;20539;-56
2022/11/03 21:10:51;;;;;;;3.47;1.70;;;15.70;73.90;;;;;;21164893;28;20059;-59
2022/11/03 21:20:53;;;;;;;2.63;1.50;;;15.70;74.20;;;;;;21164148;28;20073;-57
2022/11/03 21:30:56;;;;;;;3.92;1.10;;;15.50;74.90;;;;;;21163475;28;20048;-62
2022/11/03 21:44:13;;;;;;;2.83;1.20;;;15.50;74.80;;;;;;21163441;28;20054;-56
2022/11/03 21:51:19;;;;;;;2.72;1.20;;;15.40;75.50;;;;;;21161283;28;20438;-57
2022/11/03 22:01:21;;;;;;;2.30;1.02;;;15.40;75.60;;;;;;21163090;28;20127;-56
2022/11/03 22:11:23;;;;;;;2.38;1.00;;;15.40;75.30;;;;;;21163416;28;20382;-55
2022/11/03 22:31:44;;;;;;;2.78;1.40;;;15.30;75.90;;;;;;21177647;28;20093;-57
2022/11/03 22:52:06;;;;;;;1.92;1.48;;;15.10;76.50;;;;;;21175299;28;20052;-59
2022/11/03 23:02:07;;;;;;;3.95;3.03;;;15.00;76.60;;;;;;21175163;28;20082;-57
2022/11/03 23:12:10;;;;;;;3.15;1.40;;;14.80;77.30;;;;;;21173982;28;20131;-58
2022/11/03 23:22:12;;;;;;;2.10;1.55;;;14.70;77.60;;;;;;21173621;28;20066;-55
2022/11/03 23:32:13;;;;;;;3.22;1.80;;;14.70;77.80;;;;;;21172184;28;20052;-58
2022/11/03 23:42:14;;;;;;;2.53;1.70;;;14.60;78.00;;;;;;21171931;28;20495;-56
2022/11/03 23:52:16;;;;;;;2.63;1.98;;;14.60;77.90;;;;;;21170169;28;20491;-54
